Time;durP1;ratioP1;P1;durP2;ratioP2;P2;SDS_P1;SDS_P2;PMS_P1;PMS_P2;Temp;Humidity;BMP_temperature;BMP_pressure;BME280_temperature;BME280_humidity;BME280_pressure;Samples;Min_cycle;Max_cycle;Signal;HPM_P1;HPM_P2
2022/04/11 00:02:26;;;;;;;3.53;2.25;;;;;;;;;;5034085;28;20467;-69
2022/04/11 00:04:52;;;;;;;7.75;3.05;;;;;;;;;;5033478;28;20021;-70
2022/04/11 00:07:18;;;;;;;4.25;2.65;;;;;;;;;;5015606;28;20037;-70
2022/04/11 00:09:44;;;;;;;9.20;3.95;;;;;;;;;;5035324;28;20509;-71
2022/04/11 00:12:10;;;;;;;9.48;3.90;;;;;;;;;;5035881;28;20108;-69
2022/04/11 00:14:36;;;;;;;6.57;3.38;;;;;;;;;;5035656;28;20025;-69
2022/04/11 00:17:03;;;;;;;5.78;3.15;;;;;;;;;;5023593;28;20104;-71
2022/04/11 00:19:29;;;;;;;7.40;3.58;;;;;;;;;;5014082;28;20125;-70
2022/04/11 00:21:55;;;;;;;5.85;3.00;;;;;;;;;;4995527;28;20040;-70
2022/04/11 00:24:21;;;;;;;6.40;3.55;;;;;;;;;;5012850;28;20022;-70
2022/04/11 00:26:47;;;;;;;10.65;3.58;;;;;;;;;;5012544;28;20104;-70
2022/04/11 00:29:13;;;;;;;8.57;3.25;;;;;;;;;;5012388;28;20567;-70
2022/04/11 00:31:39;;;;;;;13.13;5.15;;;;;;;;;;5012629;28;20037;-70
2022/04/11 00:34:05;;;;;;;6.50;3.05;;;;;;;;;;4995125;28;20033;-70
2022/04/11 00:36:31;;;;;;;6.75;3.05;;;;;;;;;;4995099;28;20022;-69
2022/04/11 00:38:57;;;;;;;11.63;5.85;;;;;;;;;;5011850;28;20092;-69
2022/04/11 00:41:23;;;;;;;7.68;3.85;;;;;;;;;;5012486;28;20101;-69
2022/04/11 00:43:49;;;;;;;5.28;3.05;;;;;;;;;;5012776;28;20429;-69
2022/04/11 00:46:15;;;;;;;6.60;3.10;;;;;;;;;;5012483;28;20033;-71
2022/04/11 00:48:41;;;;;;;4.28;2.65;;;;;;;;;;4993869;28;20029;-69
2022/04/11 00:51:12;;;;;;;6.22;3.10;;;;;;;;;;5012637;28;20022;-70
2022/04/11 00:53:40;;;;;;;8.73;3.60;;;;;;;;;;4994841;28;20562;-69
2022/04/11 00:56:07;;;;;;;7.28;3.15;;;;;;;;;;5012199;28;20021;-70
2022/04/11 00:58:35;;;;;;;6.72;3.13;;;;;;;;;;4994070;28;20030;-70
2022/04/11 01:01:02;;;;;;;5.90;3.30;;;;;;;;;;4994865;28;20095;-69
2022/04/11 01:03:28;;;;;;;9.20;4.40;;;;;;;;;;5012552;28;20037;-71
2022/04/11 01:05:54;;;;;;;3.22;2.40;;;;;;;;;;5012248;28;20076;-70
2022/04/11 01:08:20;;;;;;;6.00;2.97;;;;;;;;;;4993917;28;20029;-70
2022/04/11 01:10:46;;;;;;;9.57;4.05;;;;;;;;;;5011926;28;20033;-70
2022/04/11 01:13:12;;;;;;;7.47;2.88;;;;;;;;;;4994624;28;20037;-71
2022/04/11 01:15:38;;;;;;;10.00;3.97;;;;;;;;;;5012216;28;20022;-70
2022/04/11 01:18:05;;;;;;;5.50;2.58;;;;;;;;;;5011356;28;20096;-69
2022/04/11 01:20:31;;;;;;;9.27;3.45;;;;;;;;;;5012128;28;20036;-70
2022/04/11 01:22:57;;;;;;;9.02;3.40;;;;;;;;;;5011780;28;20462;-70
2022/04/11 01:25:23;;;;;;;6.18;3.03;;;;;;;;;;5011789;28;20088;-69
2022/04/11 01:27:49;;;;;;;7.32;3.33;;;;;;;;;;4993331;28;20071;-70
2022/04/11 01:30:15;;;;;;;7.35;3.55;;;;;;;;;;5010424;28;20110;-69
2022/04/11 01:32:42;;;;;;;4.07;2.72;;;;;;;;;;5009940;28;20029;-70
2022/04/11 01:35:18;;;;;;;4.55;3.13;;;;;;;;;;5009915;28;20018;-70
2022/04/11 01:37:43;;;;;;;4.13;2.42;;;;;;;;;;4988153;28;20026;-69
2022/04/11 01:40:10;;;;;;;7.97;3.22;;;;;;;;;;4991048;28;20075;-69
2022/04/11 01:42:36;;;;;;;7.55;3.03;;;;;;;;;;4994123;28;20079;-70
2022/04/11 01:45:03;;;;;;;5.35;3.20;;;;;;;;;;5011632;28;20435;-70
2022/04/11 01:47:29;;;;;;;7.88;3.30;;;;;;;;;;5010815;28;20388;-69
2022/04/11 01:49:55;;;;;;;8.07;3.25;;;;;;;;;;4993557;28;20022;-69
2022/04/11 01:52:21;;;;;;;7.53;3.42;;;;;;;;;;4993836;28;20033;-69
2022/04/11 01:54:47;;;;;;;6.85;3.20;;;;;;;;;;5011432;28;20022;-71
2022/04/11 01:57:13;;;;;;;6.47;3.30;;;;;;;;;;5010730;28;20105;-70
2022/04/11 01:59:39;;;;;;;4.25;2.88;;;;;;;;;;4993669;28;20025;-70
2022/04/11 02:02:04;;;;;;;7.25;3.47;;;;;;;;;;5011474;28;20444;-69
2022/04/11 02:04:31;;;;;;;6.30;3.90;;;;;;;;;;5011816;28;20109;-69
2022/04/11 02:06:58;;;;;;;7.10;3.50;;;;;;;;;;5011375;28;20480;-69
2022/04/11 02:09:23;;;;;;;7.28;3.65;;;;;;;;;;5010907;28;20113;-70
2022/04/11 02:11:49;;;;;;;8.35;3.92;;;;;;;;;;5011171;28;20101;-71
2022/04/11 02:14:15;;;;;;;6.82;3.33;;;;;;;;;;5011385;28;20014;-70
2022/04/11 02:16:41;;;;;;;5.22;2.97;;;;;;;;;;5011400;28;20026;-70
2022/04/11 02:19:07;;;;;;;4.03;2.83;;;;;;;;;;5010428;28;20034;-70
2022/04/11 02:21:34;;;;;;;5.70;3.72;;;;;;;;;;5011132;28;20022;-70
2022/04/11 02:24:00;;;;;;;7.20;3.08;;;;;;;;;;4993375;28;20033;-68
2022/04/11 02:26:26;;;;;;;6.93;2.60;;;;;;;;;;5011381;28;20018;-70
2022/04/11 02:28:52;;;;;;;4.70;2.72;;;;;;;;;;5010427;28;20025;-70
2022/04/11 02:31:17;;;;;;;6.60;3.45;;;;;;;;;;5011229;28;20447;-71
2022/04/11 02:33:43;;;;;;;9.10;3.33;;;;;;;;;;5010977;28;20116;-71
2022/04/11 02:36:09;;;;;;;8.15;3.55;;;;;;;;;;4993578;28;20037;-70
2022/04/11 02:38:35;;;;;;;6.85;3.28;;;;;;;;;;5011332;28;20109;-69
2022/04/11 02:41:01;;;;;;;9.52;3.67;;;;;;;;;;5014960;28;20049;-70
2022/04/11 02:43:27;;;;;;;7.30;3.97;;;;;;;;;;5015033;28;20033;-71
2022/04/11 02:45:53;;;;;;;6.93;3.28;;;;;;;;;;4996909;28;20041;-71
2022/04/11 02:48:19;;;;;;;5.72;3.20;;;;;;;;;;5014030;28;20595;-70
2022/04/11 02:50:45;;;;;;;5.80;3.17;;;;;;;;;;5014661;28;20044;-69
2022/04/11 02:53:11;;;;;;;6.15;2.92;;;;;;;;;;5014772;28;20030;-69
2022/04/11 02:55:37;;;;;;;7.82;4.13;;;;;;;;;;5014690;28;20056;-70
2022/04/11 02:58:03;;;;;;;4.82;3.28;;;;;;;;;;4995963;28;20489;-69
2022/04/11 03:00:29;;;;;;;6.13;3.05;;;;;;;;;;5014667;28;20464;-69
2022/04/11 03:02:58;;;;;;;4.93;3.00;;;;;;;;;;5014322;28;20030;-69
2022/04/11 03:05:24;;;;;;;6.88;3.33;;;;;;;;;;5014339;28;20491;-70
2022/04/11 03:07:50;;;;;;;6.50;3.42;;;;;;;;;;4995724;28;20061;-70
2022/04/11 03:10:16;;;;;;;9.18;3.35;;;;;;;;;;5014459;28;20054;-70
2022/04/11 03:12:42;;;;;;;4.78;3.35;;;;;;;;;;5014271;28;20029;-70
2022/04/11 03:15:08;;;;;;;6.03;3.30;;;;;;;;;;5014285;28;20446;-70
2022/04/11 03:17:34;;;;;;;8.50;3.80;;;;;;;;;;4995729;28;20018;-70
2022/04/11 03:20:00;;;;;;;7.13;3.47;;;;;;;;;;5013935;28;20108;-70
2022/04/11 03:22:26;;;;;;;11.13;3.88;;;;;;;;;;4996432;28;20463;-70
2022/04/11 03:24:52;;;;;;;7.05;3.67;;;;;;;;;;5014218;28;20152;-69
2022/04/11 03:27:18;;;;;;;8.80;4.03;;;;;;;;;;5013615;28;20052;-69
2022/04/11 03:29:44;;;;;;;5.68;3.58;;;;;;;;;;5013623;28;20034;-70
2022/04/11 03:32:10;;;;;;;7.40;3.45;;;;;;;;;;5013719;28;20026;-69
2022/04/11 03:34:36;;;;;;;5.82;3.55;;;;;;;;;;5013691;28;20018;-69
2022/04/11 03:37:02;;;;;;;5.35;3.33;;;;;;;;;;4995858;28;20029;-69
2022/04/11 03:39:28;;;;;;;9.63;3.65;;;;;;;;;;5013696;28;20101;-69
2022/04/11 03:41:54;;;;;;;6.53;3.58;;;;;;;;;;5013421;28;20152;-70
2022/04/11 03:44:20;;;;;;;8.18;3.88;;;;;;;;;;5013701;28;20109;-70
2022/04/11 03:46:46;;;;;;;5.07;2.80;;;;;;;;;;4996731;28;20038;-70
2022/04/11 03:49:12;;;;;;;6.00;3.63;;;;;;;;;;5013045;28;20032;-71
2022/04/11 03:51:38;;;;;;;8.00;4.50;;;;;;;;;;5012311;28;20056;-70
2022/04/11 03:54:04;;;;;;;8.15;3.22;;;;;;;;;;5013213;28;20052;-71
2022/04/11 03:56:30;;;;;;;6.60;3.75;;;;;;;;;;5013565;28;20093;-70
2022/04/11 03:58:56;;;;;;;6.65;3.53;;;;;;;;;;5012613;28;20522;-71
2022/04/11 04:01:22;;;;;;;7.75;3.05;;;;;;;;;;5013092;28;20068;-70
2022/04/11 04:03:48;;;;;;;10.60;3.42;;;;;;;;;;4995415;28;20034;-70
2022/04/11 04:06:14;;;;;;;6.00;3.08;;;;;;;;;;5013534;28;20072;-70
2022/04/11 04:08:40;;;;;;;11.27;3.85;;;;;;;;;;5013503;28;20028;-70
2022/04/11 04:11:06;;;;;;;9.95;3.92;;;;;;;;;;5014733;28;20053;-71
2022/04/11 04:13:34;;;;;;;6.03;3.33;;;;;;;;;;4996624;28;20022;-71
2022/04/11 04:16:00;;;;;;;8.20;3.33;;;;;;;;;;5032443;28;20091;-71
2022/04/11 04:18:26;;;;;;;7.80;3.50;;;;;;;;;;5027313;28;20018;-71
2022/04/11 04:20:52;;;;;;;8.32;3.95;;;;;;;;;;5013113;28;20036;-70
2022/04/11 04:23:18;;;;;;;7.25;3.25;;;;;;;;;;5013330;28;20032;-71
2022/04/11 04:25:44;;;;;;;9.63;3.92;;;;;;;;;;5012811;28;20080;-71
2022/04/11 04:28:10;;;;;;;7.35;3.95;;;;;;;;;;5012043;28;20033;-72
2022/04/11 04:30:36;;;;;;;7.00;3.35;;;;;;;;;;5012910;28;20034;-70
2022/04/11 04:33:02;;;;;;;8.65;4.15;;;;;;;;;;5024112;28;20033;-69
2022/04/11 04:35:28;;;;;;;7.47;4.43;;;;;;;;;;5019147;28;20032;-70
2022/04/11 04:37:54;;;;;;;6.82;3.30;;;;;;;;;;5013192;28;20030;-70
2022/04/11 04:40:20;;;;;;;8.65;4.65;;;;;;;;;;5016407;28;20081;-70
2022/04/11 04:42:46;;;;;;;6.07;3.65;;;;;;;;;;5020002;28;20029;-69
2022/04/11 04:45:12;;;;;;;10.70;3.88;;;;;;;;;;5008271;28;20457;-71
2022/04/11 04:47:38;;;;;;;6.85;3.83;;;;;;;;;;5009421;28;20112;-71
2022/04/11 04:50:04;;;;;;;6.93;4.30;;;;;;;;;;5020277;28;20056;-71
2022/04/11 04:52:30;;;;;;;6.32;3.50;;;;;;;;;;5012580;28;20109;-71
2022/04/11 04:54:56;;;;;;;10.82;3.58;;;;;;;;;;4993523;28;20474;-71
2022/04/11 04:57:22;;;;;;;4.78;2.38;;;;;;;;;;5009732;28;20026;-70
2022/04/11 04:59:48;;;;;;;6.47;2.95;;;;;;;;;;5009873;28;20468;-71
2022/04/11 05:02:14;;;;;;;5.88;2.70;;;;;;;;;;5010345;28;20470;-71
2022/04/11 05:04:41;;;;;;;6.78;3.33;;;;;;;;;;5010393;28;20025;-70
2022/04/11 05:07:07;;;;;;;4.93;2.13;;;;;;;;;;5003127;28;20026;-70
2022/04/11 05:09:33;;;;;;;5.32;2.55;;;;;;;;;;5030261;28;20541;-71
2022/04/11 05:11:59;;;;;;;6.15;2.80;;;;;;;;;;5031092;28;20036;-70
2022/04/11 05:14:25;;;;;;;7.00;2.55;;;;;;;;;;5031842;28;20087;-71
2022/04/11 05:16:52;;;;;;;9.57;3.45;;;;;;;;;;5031467;28;20068;-71
2022/04/11 05:19:18;;;;;;;6.03;2.75;;;;;;;;;;5030914;28;20018;-71
2022/04/11 05:21:43;;;;;;;5.65;2.38;;;;;;;;;;5022020;28;20026;-72
2022/04/11 05:24:09;;;;;;;11.65;2.90;;;;;;;;;;5011678;28;20018;-72
2022/04/11 05:26:35;;;;;;;4.38;2.38;;;;;;;;;;5019037;28;20022;-71
2022/04/11 05:29:03;;;;;;;6.57;2.17;;;15.00;40.30;;;;;;5030337;28;20506;-72
2022/04/11 05:31:29;;;;;;;6.20;2.50;;;14.90;40.00;;;;;;5031966;28;20148;-71
2022/04/11 05:33:54;;;;;;;3.97;2.42;;;14.70;39.90;;;;;;5032375;28;20550;-73
2022/04/11 05:36:20;;;;;;;7.43;2.28;;;14.40;40.30;;;;;;5032531;28;20021;-72
2022/04/11 05:38:45;;;;;;;5.85;2.50;;;14.70;41.30;;;;;;5031090;28;20029;-73
2022/04/11 05:41:12;;;;;;;6.28;2.30;;;16.20;38.20;;;;;;5033349;28;20037;-73
2022/04/11 05:43:38;;;;;;;7.22;2.67;;;17.50;36.30;;;;;;5037608;28;20025;-72
2022/04/11 05:46:05;;;;;;;8.75;2.60;;;17.20;35.70;;;;;;5034224;28;20076;-72
2022/04/11 05:48:32;;;;;;;8.45;2.67;;;17.60;34.80;;;;;;5031325;28;20104;-71
2022/04/11 05:51:01;;;;;;;4.28;2.40;;;17.50;34.30;;;;;;5031821;28;20045;-71
2022/04/11 05:53:27;;;;;;;6.85;2.40;;;18.50;33.50;;;;;;5032682;28;20034;-71
2022/04/11 05:55:52;;;;;;;5.75;2.80;;;18.80;33.20;;;;;;5032043;28;20384;-72
2022/04/11 05:58:18;;;;;;;5.03;2.50;;;19.20;30.90;;;;;;5030890;28;20095;-71
2022/04/11 06:00:43;;;;;;;7.38;2.30;;;19.20;31.60;;;;;;5013601;28;20037;-71
2022/04/11 06:03:09;;;;;;;5.85;2.50;;;19.90;31.50;;;;;;5031547;28;20037;-71
2022/04/11 06:05:37;;;;;;;4.53;2.53;;;20.60;29.50;;;;;;5031235;28;20028;-71
2022/04/11 06:08:03;;;;;;;3.45;2.03;;;20.50;29.50;;;;;;5030213;28;20034;-72
2022/04/11 06:10:28;;;;;;;8.05;2.60;;;21.00;29.10;;;;;;5013398;28;20021;-72
2022/04/11 06:12:54;;;;;;;4.38;2.45;;;20.80;28.80;;;;;;5031154;28;20522;-72
2022/04/11 06:15:19;;;;;;;6.97;3.47;;;19.90;29.70;;;;;;5034985;28;20638;-71
2022/04/11 06:17:45;;;;;;;3.40;2.10;;;19.50;30.90;;;;;;5034262;28;20454;-72
2022/04/11 06:20:11;;;;;;;5.00;2.70;;;19.10;31.20;;;;;;5016988;28;20479;-73
2022/04/11 06:22:38;;;;;;;6.20;2.47;;;19.60;30.20;;;;;;5034813;28;20112;-73
2022/04/11 06:25:05;;;;;;;4.82;2.35;;;20.30;29.60;;;;;;5035584;28;20041;-72
2022/04/11 06:27:32;;;;;;;5.10;2.20;;;20.40;29.10;;;;;;5033584;28;20513;-72
2022/04/11 06:29:58;;;;;;;2.33;1.75;;;20.90;28.20;;;;;;5034012;28;20028;-71
2022/04/11 06:32:29;;;;;;;3.35;1.88;;;21.50;27.40;;;;;;5034050;28;20034;-72
2022/04/11 06:34:55;;;;;;;5.97;2.08;;;21.70;26.80;;;;;;5033776;28;20018;-72
2022/04/11 06:37:24;;;;;;;5.80;2.17;;;22.10;26.50;;;;;;5033159;28;20445;-73
2022/04/11 06:39:50;;;;;;;6.45;2.28;;;22.50;26.20;;;;;;5034113;28;20100;-73
2022/04/11 06:42:15;;;;;;;4.57;2.13;;;21.80;26.30;;;;;;5033824;28;20526;-71
2022/04/11 06:44:41;;;;;;;5.23;2.00;;;21.90;26.90;;;;;;4996445;28;1075139;-72
2022/04/11 06:47:08;;;;;;;3.33;2.05;;;21.80;26.60;;;;;;5016290;28;20053;-70
2022/04/11 06:49:34;;;;;;;5.22;1.80;;;22.00;27.50;;;;;;5034706;28;20022;-73
2022/04/11 06:52:00;;;;;;;6.38;3.80;;;;;;;;;;5034718;28;20109;-72
2022/04/11 06:54:26;;;;;;;4.15;1.85;;;22.00;26.00;;;;;;5034774;28;20049;-71
2022/04/11 06:56:51;;;;;;;7.13;2.30;;;21.60;27.60;;;;;;5034437;28;20399;-73
2022/04/11 06:59:17;;;;;;;4.97;2.35;;;22.00;26.70;;;;;;5033850;28;20117;-72
2022/04/11 07:01:42;;;;;;;5.90;1.90;;;22.50;26.10;;;;;;5034816;28;20083;-71
2022/04/11 07:04:08;;;;;;;6.38;2.00;;;23.00;25.20;;;;;;5035115;28;20021;-72
2022/04/11 07:06:34;;;;;;;5.78;1.90;;;22.90;26.00;;;;;;5016674;28;20041;-72
2022/04/11 07:09:00;;;;;;;2.83;1.73;;;22.00;25.60;;;;;;5033583;28;20049;-71
2022/04/11 07:11:25;;;;;;;5.28;2.15;;;22.30;25.90;;;;;;5034537;28;20483;-72
2022/04/11 07:13:51;;;;;;;5.78;2.00;;;22.80;25.70;;;;;;5034692;28;20028;-73
2022/04/11 07:16:16;;;;;;;5.38;2.35;;;22.50;25.80;;;;;;5017036;28;20129;-72
2022/04/11 07:18:42;;;;;;;5.05;1.55;;;21.90;26.20;;;;;;5016008;28;20463;-72
2022/04/11 07:21:08;;;;;;;5.78;1.75;;;;;;;;;;5016804;28;20024;-70
2022/04/11 07:23:34;;;;;;;4.70;1.85;;;;;;;;;;5034490;28;20026;-72
2022/04/11 07:26:00;;;;;;;3.63;1.60;;;;;;;;;;5034322;28;20029;-73
2022/04/11 07:28:26;;;;;;;4.63;1.70;;;;;;;;;;5033658;28;20403;-72
2022/04/11 07:30:52;;;;;;;5.30;1.90;;;;;;;;;;5034422;28;20373;-72
2022/04/11 07:33:18;;;;;;;3.92;1.25;;;;;;;;;;5034251;28;20030;-71
2022/04/11 07:35:44;;;;;;;2.75;1.40;;;;;;;;;;5034032;28;20021;-72
2022/04/11 07:38:10;;;;;;;7.68;1.60;;;;;;;;;;5031082;28;20025;-72
2022/04/11 07:40:36;;;;;;;5.40;1.73;;;;;;;;;;4991904;28;20101;-72
2022/04/11 07:43:02;;;;;;;4.97;1.40;;;;;;;;;;4977403;28;20030;-72
2022/04/11 07:45:28;;;;;;;2.75;1.10;;;;;;;;;;4994846;28;20038;-72
2022/04/11 07:47:54;;;;;;;3.40;1.13;;;;;;;;;;4993828;28;20081;-73
2022/04/11 07:50:20;;;;;;;2.90;0.82;;;;;;;;;;4976862;28;20038;-73
2022/04/11 07:52:46;;;;;;;3.40;1.23;;;;;;;;;;4994188;28;20027;-73
2022/04/11 07:55:15;;;;;;;5.28;0.98;;;;;;;;;;4994491;28;20046;-73
2022/04/11 07:57:41;;;;;;;3.28;1.63;;;;;;;;;;4993644;28;20372;-72
2022/04/11 08:00:08;;;;;;;2.88;0.90;;;;;;;;;;4995068;28;20097;-72
2022/04/11 08:02:34;;;;;;;4.30;1.52;;;;;;;;;;4994989;28;20018;-71
2022/04/11 08:05:05;;;;;;;3.05;1.00;;;;;;;;;;4994581;28;20093;-72
2022/04/11 08:07:34;;;;;;;3.33;1.48;;;;;;;;;;4994359;28;20400;-72
2022/04/11 08:10:05;;;;;;;2.38;1.15;;;;;;;;;;4994814;28;20416;-71
2022/04/11 08:12:31;;;;;;;3.00;0.83;;;;;;;;;;4994581;28;20218;-70
2022/04/11 08:14:57;;;;;;;4.05;1.10;;;;;;;;;;4976680;28;20476;-72
2022/04/11 08:17:23;;;;;;;2.97;1.15;;;;;;;;;;4975824;28;20042;-72
2022/04/11 08:19:49;;;;;;;3.30;1.10;;;;;;;;;;4993812;28;20608;-72
2022/04/11 08:22:15;;;;;;;2.20;1.05;;;;;;;;;;4993935;28;20035;-71
2022/04/11 08:24:41;;;;;;;4.25;0.90;;;;;;;;;;4976079;28;20081;-70
2022/04/11 08:27:07;;;;;;;3.90;1.10;;;;;;;;;;4975335;28;20032;-71
2022/04/11 08:29:33;;;;;;;4.28;1.55;;;;;;;;;;4993727;28;20071;-72
2022/04/11 08:31:59;;;;;;;1.92;1.13;;;;;;;;;;4993493;28;20026;-72
2022/04/11 08:34:25;;;;;;;5.70;1.10;;;;;;;;;;4993377;28;20030;-72
2022/04/11 08:36:51;;;;;;;2.63;1.73;;;;;;;;;;4992747;28;20113;-71
2022/04/11 08:39:17;;;;;;;4.95;1.63;;;;;;;;;;4992863;28;20035;-72
2022/04/11 08:41:43;;;;;;;3.42;1.23;;;;;;;;;;4993487;28;20030;-72
2022/04/11 08:44:09;;;;;;;1.52;0.65;;;;;;;;;;4993665;28;20061;-73
2022/04/11 08:46:36;;;;;;;2.88;1.20;;;;;;;;;;4993285;28;20034;-73
2022/04/11 08:49:03;;;;;;;3.30;1.10;;;;;;;;;;4992646;28;20023;-72
2022/04/11 08:51:31;;;;;;;5.47;1.20;;;;;;;;;;4993230;28;20077;-72
2022/04/11 08:53:56;;;;;;;4.63;1.08;;;;;;;;;;4993302;28;20079;-73
2022/04/11 08:56:23;;;;;;;2.17;0.90;;;;;;;;;;4993108;28;20105;-72
2022/04/11 08:58:49;;;;;;;4.10;1.17;;;;;;;;;;4992415;28;20062;-73
2022/04/11 09:01:15;;;;;;;3.50;1.10;;;;;;;;;;4992952;28;20097;-72
2022/04/11 09:03:43;;;;;;;5.85;1.42;;;;;;;;;;4993265;28;20073;-71
2022/04/11 09:06:13;;;;;;;2.50;0.90;;;;;;;;;;4975393;28;20027;-73
2022/04/11 09:08:42;;;;;;;1.88;0.93;;;;;;;;;;4992446;28;20037;-72
2022/04/11 09:11:09;;;;;;;3.15;1.30;;;;;;;;;;4993154;28;20057;-72
2022/04/11 09:13:51;;;;;;;3.63;1.13;;;;;;;;;;4975263;28;20025;-71
2022/04/11 09:16:17;;;;;;;2.22;1.10;;;;;;;;;;4992696;28;20061;-73
2022/04/11 09:18:47;;;;;;;2.33;0.90;;;;;;;;;;4974651;28;20026;-70
2022/04/11 09:21:13;;;;;;;2.05;0.98;;;;;;;;;;4992907;28;20026;-70
2022/04/11 09:23:39;;;;;;;1.90;0.85;;;;;;;;;;4992940;28;20102;-72
2022/04/11 09:26:18;;;;;;;2.25;1.17;;;;;;;;;;4975279;28;20480;-72
2022/04/11 09:28:44;;;;;;;3.67;1.55;;;;;;;;;;4992395;28;20026;-72
2022/04/11 09:31:09;;;;;;;5.60;1.00;;;;;;;;;;4992577;28;20503;-71
2022/04/11 09:33:40;;;;;;;3.75;0.90;;;;;;;;;;4992618;28;20534;-72
2022/04/11 09:36:06;;;;;;;2.27;0.90;;;;;;;;;;4975149;28;20484;-71
2022/04/11 09:38:37;;;;;;;3.38;0.98;;;;;;;;;;4974254;28;20023;-72
2022/04/11 09:41:03;;;;;;;2.22;0.90;;;;;;;;;;4992501;28;20034;-71
2022/04/11 09:43:29;;;;;;;2.13;0.85;;;;;;;;;;4992671;28;20443;-72
2022/04/11 09:45:56;;;;;;;3.17;0.77;;;;;;;;;;5033226;23;20042;-72
2022/04/11 09:48:27;;;;;;;1.73;0.95;;;;;;;;;;5013406;28;20025;-72
2022/04/11 09:50:54;;;;;;;3.13;1.30;;;;;;;;;;5031818;28;20025;-72
2022/04/11 09:53:21;;;;;;;1.88;1.00;;;;;;;;;;5031499;28;20101;-70
2022/04/11 09:55:50;;;;;;;2.80;1.60;;;;;;;;;;5031460;28;20376;-67
2022/04/11 09:58:17;;;;;;;2.50;1.25;;;;;;;;;;5030799;28;20109;-72
2022/04/11 10:00:44;;;;;;;1.17;0.60;;;;;;;;;;5014003;28;20171;-73
2022/04/11 10:03:09;;;;;;;2.35;0.80;;;;;;;;;;5031490;28;20111;-73
2022/04/11 10:05:36;;;;;;;2.63;1.13;;;;;;;;;;5031649;28;20470;-72
2022/04/11 10:08:09;;;;;;;5.68;0.98;;;;;;;;;;5030479;28;20470;-72
2022/04/11 10:10:38;;;;;;;4.18;1.00;;;;;;;;;;5031282;28;20033;-72
2022/04/11 10:13:05;;;;;;;1.60;0.85;;;;;;;;;;5031336;28;20110;-73
2022/04/11 10:15:31;;;;;;;1.33;0.88;;;;;;;;;;5031244;28;20026;-72
2022/04/11 10:18:01;;;;;;;3.72;1.10;;;;;;;;;;5030758;28;20021;-73
2022/04/11 10:20:31;;;;;;;1.80;0.60;;;;;;;;;;5031067;28;20022;-72
2022/04/11 10:23:17;;;;;;;1.40;0.50;;;;;;;;;;5031062;28;20087;-72
2022/04/11 10:25:47;;;;;;;3.03;0.80;;;;;;;;;;5013041;28;20526;-72
2022/04/11 10:28:14;;;;;;;2.25;0.65;;;;;;;;;;5012885;28;20057;-72
2022/04/11 10:30:40;;;;;;;3.03;0.40;;;;;;;;;;5031273;28;20441;-73
2022/04/11 10:33:06;;;;;;;3.78;1.00;;;;;;;;;;5031032;28;20037;-72
2022/04/11 10:35:43;;;;;;;2.70;1.08;;;;;;;;;;5030849;28;20045;-73
2022/04/11 10:38:10;;;;;;;1.13;0.60;;;;;;;;;;5031152;28;20022;-72
2022/04/11 10:40:37;;;;;;;1.33;0.63;;;;;;;;;;5031044;28;20481;-72
2022/04/11 10:43:08;;;;;;;2.08;0.70;;;;;;;;;;5031362;28;20024;-73
2022/04/11 10:45:38;;;;;;;2.13;0.90;;;;;;;;;;5030855;28;20037;-72
2022/04/11 10:48:05;;;;;;;3.58;0.60;;;;;;;;;;5030536;28;20021;-72
2022/04/11 10:50:37;;;;;;;1.95;0.50;;;;;;;;;;5030992;28;20034;-72
2022/04/11 10:53:07;;;;;;;3.75;0.70;;;;;;;;;;5030885;28;20200;-73
2022/04/11 10:55:33;;;;;;;1.35;0.70;;;;;;;;;;5030527;28;20026;-72
2022/04/11 10:58:00;;;;;;;1.25;0.43;;;;;;;;;;5030330;28;20079;-71
2022/04/11 11:00:31;;;;;;;1.70;0.52;;;;;;;;;;5032489;28;20475;-71
2022/04/11 11:02:59;;;;;;;;;;;;;;;;;;5017147;28;20101;-71
2022/04/11 11:05:31;;;;;;;2.53;0.85;;;;;;;;;;5016864;28;19948;-71
2022/04/11 11:08:09;;;;;;;1.50;0.82;;;;;;;;;;5033895;28;20030;-72
2022/04/11 11:10:50;;;;;;;1.65;0.63;;;;;;;;;;5034532;28;20025;-72
2022/04/11 11:13:34;;;;;;;3.03;1.08;;;;;;;;;;5034673;28;20490;-72
2022/04/11 11:16:00;;;;;;;3.30;0.90;;;;;;;;;;5016342;28;20033;-72
2022/04/11 11:18:27;;;;;;;2.13;1.10;;;;;;;;;;5033435;28;20032;-72
2022/04/11 11:20:55;;;;;;;0.98;0.60;;;;;;;;;;5034116;28;20033;-71
2022/04/11 11:23:23;;;;;;;1.80;0.90;;;;;;;;;;5016451;28;20031;-72
2022/04/11 11:25:49;;;;;;;3.58;0.85;;;;;;;;;;5033922;28;20045;-71
2022/04/11 11:28:15;;;;;;;3.38;1.40;;;;;;;;;;5033469;28;20483;-72
2022/04/11 11:30:42;;;;;;;1.95;0.90;;;;;;;;;;5034270;28;20037;-71
2022/04/11 11:33:09;;;;;;;2.35;0.98;;;;;;;;;;5033782;28;20026;-67
2022/04/11 11:35:44;;;;;;;3.22;0.70;;;;;;;;;;5033311;28;20022;-73
2022/04/11 11:38:10;;;;;;;3.05;0.65;;;;;;;;;;5033127;28;20364;-70
2022/04/11 11:40:41;;;;;;;2.58;1.02;;;;;;;;;;5033992;28;20036;-71
2022/04/11 11:43:12;;;;;;;2.13;0.90;;;;;;;;;;5034150;28;20028;-73
2022/04/11 11:45:40;;;;;;;3.05;0.70;;;;;;;;;;5033606;28;20038;-71
2022/04/11 11:48:20;;;;;;;1.80;0.93;;;;;;;;;;5032949;28;20064;-72
2022/04/11 11:50:47;;;;;;;3.33;1.33;;;;;;;;;;5034153;28;20374;-71
2022/04/11 11:53:13;;;;;;;2.67;0.93;;;;;;;;;;5033747;28;20038;-71
2022/04/11 11:55:50;;;;;;;7.20;1.25;;;;;;;;;;5034167;28;20487;-71
2022/04/11 11:58:17;;;;;;;1.98;1.00;;;;;;;;;;5015414;28;20029;-71
2022/04/11 12:00:46;;;;;;;5.70;1.38;;;;;;;;;;5033859;28;20041;-71
2022/04/11 12:06:01;;;;;;;4.22;1.50;;;;;;;;;;5034102;28;20044;-72
2022/04/11 12:08:30;;;;;;;6.30;1.20;;;;;;;;;;5033062;28;20017;-72
2022/04/11 12:10:58;;;;;;;2.78;1.23;;;;;;;;;;5032807;28;20483;-72
2022/04/11 12:13:25;;;;;;;4.13;1.73;;;;;;;;;;5033180;28;20033;-73
2022/04/11 12:15:51;;;;;;;2.65;1.10;;;;;;;;;;5033445;28;20101;-72
2022/04/11 12:18:17;;;;;;;2.38;1.38;;;;;;;;;;5032452;28;20470;-72
2022/04/11 12:20:44;;;;;;;4.35;1.40;;;;;;;;;;5033323;28;20030;-71
2022/04/11 12:23:12;;;;;;;1.92;1.23;;;;;;;;;;5033364;28;20022;-72
2022/04/11 12:25:38;;;;;;;2.13;1.30;;;;;;;;;;5032940;28;20450;-70
2022/04/11 12:28:13;;;;;;;4.07;1.10;;;;;;;;;;5032237;28;20068;-72
2022/04/11 12:30:44;;;;;;;3.70;1.30;;;;;;;;;;5033389;28;20033;-73
2022/04/11 12:33:10;;;;;;;;;;;;;;;;;;5033717;28;20029;-71
2022/04/11 12:35:36;;;;;;;1.63;0.80;;;;;;;;;;5032947;28;19911;-71
2022/04/11 12:38:07;;;;;;;2.85;1.00;;;;;;;;;;5031950;28;20126;-72
2022/04/11 12:40:46;;;;;;;3.30;1.05;;;;;;;;;;5015142;28;20037;-73
2022/04/11 12:43:12;;;;;;;3.40;1.13;;;;;;;;;;5032940;28;20494;-72
2022/04/11 12:45:39;;;;;;;4.93;1.20;;;;;;;;;;5032674;28;20033;-72
2022/04/11 12:48:06;;;;;;;3.55;1.08;;;;;;;;;;5032207;28;20108;-71
2022/04/11 12:50:32;;;;;;;2.58;1.00;;;;;;;;;;5031076;28;20052;-72
2022/04/11 12:52:58;;;;;;;2.22;1.20;;;;;;;;;;5030920;28;20022;-73
2022/04/11 12:55:26;;;;;;;2.22;1.20;;;;;;;;;;5031596;28;20053;-71
2022/04/11 12:58:08;;;;;;;7.28;1.58;;;;;;;;;;5031573;28;20100;-71
2022/04/11 13:00:36;;;;;;;4.25;1.08;;;;;;;;;;5014732;28;20128;-74
2022/04/11 13:03:02;;;;;;;4.60;1.13;;;;;;;;;;5032141;28;20029;-73
2022/04/11 13:05:29;;;;;;;1.52;1.20;;;;;;;;;;5032163;28;20032;-73
2022/04/11 13:07:55;;;;;;;2.33;1.10;;;;;;;;;;5031091;28;20030;-72
2022/04/11 13:10:22;;;;;;;2.90;0.98;;;;;;;;;;5032266;28;20032;-72
2022/04/11 13:12:49;;;;;;;3.92;1.10;;;;;;;;;;5032006;28;20022;-72
2022/04/11 13:15:15;;;;;;;4.80;1.42;;;;;;;;;;5031798;28;20018;-72
2022/04/11 13:20:27;;;;;;;4.50;1.48;;;;;;;;;;5032197;28;20099;-71
2022/04/11 13:22:53;;;;;;;4.13;1.33;;;;;;;;;;5031430;28;20030;-72
2022/04/11 13:25:20;;;;;;;1.45;1.05;;;;;;;;;;5031824;28;20032;-71
2022/04/11 13:27:46;;;;;;;3.92;1.10;;;;;;;;;;5030840;28;20104;-70
2022/04/11 13:30:12;;;;;;;3.50;1.15;;;;;;;;;;5031095;28;20533;-69
2022/04/11 13:32:38;;;;;;;1.90;1.25;;;;;;;;;;5031530;28;20029;-69
2022/04/11 13:35:05;;;;;;;2.80;1.23;;;;;;;;;;5014052;28;20025;-71
2022/04/11 13:37:31;;;;;;;4.82;1.77;;;;;;;;;;5031387;28;20041;-69
2022/04/11 13:39:57;;;;;;;3.85;1.05;;;;;;;;;;5027907;28;20029;-71
2022/04/11 13:42:23;;;;;;;2.13;1.00;;;;;;;;;;5028415;28;20109;-70
2022/04/11 13:44:49;;;;;;;4.15;1.50;;;;;;;;;;5029121;28;20494;-71
2022/04/11 13:47:15;;;;;;;3.92;1.50;;;;;;;;;;5012480;28;20528;-71
2022/04/11 13:49:42;;;;;;;2.10;1.10;;;;;;;;;;5031077;28;20036;-71
2022/04/11 13:52:08;;;;;;;2.20;1.25;;;;;;;;;;5031386;28;20108;-71
2022/04/11 13:54:34;;;;;;;4.10;1.23;;;;;;;;;;5031188;28;20475;-71
2022/04/11 13:57:00;;;;;;;5.53;1.40;;;;;;;;;;5030777;28;20084;-71
2022/04/11 13:59:26;;;;;;;1.63;1.15;;;;;;;;;;5031200;28;20032;-71
2022/04/11 14:01:53;;;;;;;6.45;1.55;;;;;;;;;;5030909;28;20085;-71
2022/04/11 14:04:23;;;;;;;1.45;0.90;;;;;;;;;;5030882;28;20017;-70
2022/04/11 14:06:49;;;;;;;1.92;1.10;;;;;;;;;;5030951;28;20228;-71
2022/04/11 14:09:16;;;;;;;2.50;1.10;;;;;;;;;;5030827;28;20028;-71
2022/04/11 14:11:42;;;;;;;5.53;1.35;;;;;;;;;;5031210;28;20053;-69
2022/04/11 14:14:08;;;;;;;3.42;1.15;;;;;;;;;;5031057;28;20394;-71
2022/04/11 14:16:35;;;;;;;2.55;1.30;;;;;;;;;;5029342;28;20034;-71
2022/04/11 14:19:01;;;;;;;3.33;1.27;;;;;;;;;;5030540;28;20026;-69
2022/04/11 14:21:27;;;;;;;4.35;1.17;;;;;;;;;;5031746;28;20021;-72
2022/04/11 14:23:53;;;;;;;1.83;1.05;;;;;;;;;;5031401;28;20033;-71
2022/04/11 14:26:19;;;;;;;3.05;1.27;;;;;;;;;;5031234;28;20036;-72
2022/04/11 14:28:45;;;;;;;5.25;1.40;;;;;;;;;;5030495;28;20026;-71
2022/04/11 14:31:12;;;;;;;2.47;1.45;;;;;;;;;;5030892;28;20419;-71